Terminal Aerodrome Forecast
Issued by NWS

Home | Current Version | Previous Version | Text Only | Print | Product List | Glossary On
Versions: 1 2 3 4 5 6 7 8 9 10 11 12 13 14 15 16 17 18 19 20 21 22 23 24
000
FTUS46 KSEW 241720
TAFSEA
TAF
KSEA 241720Z 2418/2524 VRB03KT P6SM BKN035
     FM242100 VRB03KT P6SM SCT035 BKN200
     FM250800 13005KT P6SM VCFG BKN012
      TEMPO 2512/2516 3SM BR OVC010
     FM252100 VRB03KT P6SM BKN025
      TEMPO 2521/2524 SCT030=

USA.gov is the U.S. government's official web portal to all federal, state and local government web resources and services.